createdAt,value
2022-08-11T00:02:31.863Z,3.10
2022-08-11T00:05:05.763Z,3.10
2022-08-11T00:07:34.339Z,3.10
2022-08-11T00:10:03.409Z,2.80
2022-08-11T00:12:31.862Z,2.88
2022-08-11T00:15:03.094Z,2.88
2022-08-11T00:17:33.740Z,3.30
2022-08-11T00:20:14.565Z,3.17
2022-08-11T00:22:47.536Z,2.95
2022-08-11T00:25:17.961Z,2.97
2022-08-11T00:27:48.017Z,2.90
2022-08-11T00:30:18.345Z,3.00
2022-08-11T00:32:54.806Z,3.20
2022-08-11T00:35:53.964Z,2.80
2022-08-11T00:38:17.370Z,2.78
2022-08-11T00:40:54.072Z,2.88
2022-08-11T00:43:32.789Z,3.13
2022-08-11T00:46:17.265Z,2.95
2022-08-11T00:48:58.378Z,3.00
2022-08-11T00:52:04.184Z,3.42
2022-08-11T00:55:12.684Z,3.08
2022-08-11T00:58:12.972Z,3.00
2022-08-11T01:00:59.741Z,3.08
2022-08-11T01:03:41.705Z,3.03
2022-08-11T01:06:46.710Z,3.13
2022-08-11T01:09:29.218Z,2.88
2022-08-11T01:12:36.889Z,3.05
2022-08-11T01:15:35.019Z,2.85
2022-08-11T01:18:56.857Z,3.55
2022-08-11T01:22:12.293Z,3.33
2022-08-11T01:25:23.088Z,3.60
2022-08-11T01:28:38.853Z,3.30
2022-08-11T01:31:48.962Z,3.72
2022-08-11T01:34:55.876Z,3.13
2022-08-11T01:37:54.209Z,3.53
2022-08-11T01:40:59.160Z,3.30
2022-08-11T01:44:25.544Z,3.17
2022-08-11T01:46:57.958Z,2.92
2022-08-11T01:50:08.887Z,2.90
2022-08-11T01:52:37.620Z,3.22
2022-08-11T01:55:16.396Z,3.05
2022-08-11T01:57:54.456Z,2.80
2022-08-11T02:00:28.968Z,3.30
2022-08-11T02:03:07.758Z,3.30
2022-08-11T02:05:51.402Z,2.93
2022-08-11T02:08:35.175Z,3.17
2022-08-11T02:11:35.539Z,3.85
2022-08-11T02:14:22.819Z,3.40
2022-08-11T02:17:03.495Z,3.42
2022-08-11T02:20:01.615Z,3.47
2022-08-11T02:22:54.116Z,3.55
2022-08-11T02:25:28.615Z,2.97
2022-08-11T02:28:03.630Z,3.70
2022-08-11T02:30:38.200Z,3.53
2022-08-11T02:33:24.939Z,3.55
2022-08-11T02:36:19.692Z,3.30
2022-08-11T02:38:54.185Z,3.58
2022-08-11T02:41:48.459Z,3.37
2022-08-11T02:44:32.234Z,3.45
2022-08-11T02:47:08.322Z,3.73
2022-08-11T02:50:06.241Z,3.27
2022-08-11T02:52:42.403Z,3.90
2022-08-11T02:55:45.968Z,3.77
2022-08-11T02:58:29.130Z,3.30
2022-08-11T03:01:11.474Z,3.50
2022-08-11T03:03:48.484Z,3.70
2022-08-11T03:06:32.399Z,3.40
2022-08-11T03:09:06.907Z,3.15
2022-08-11T03:12:10.584Z,3.60
2022-08-11T03:15:07.418Z,3.43
2022-08-11T03:17:42.143Z,3.50
2022-08-11T03:20:24.395Z,3.93
2022-08-11T03:23:19.662Z,3.83
2022-08-11T03:26:06.834Z,3.13
2022-08-11T03:28:45.601Z,3.33
2022-08-11T03:31:25.291Z,3.57
2022-08-11T03:34:07.550Z,3.47
2022-08-11T03:37:16.426Z,3.93
2022-08-11T03:39:56.712Z,3.40
2022-08-11T03:42:33.265Z,3.90
2022-08-11T03:45:50.355Z,3.90
2022-08-11T03:48:26.277Z,3.73
2022-08-11T03:51:03.929Z,3.50
2022-08-11T03:53:55.996Z,3.97
2022-08-11T03:57:03.380Z,3.70
2022-08-11T04:00:09.035Z,3.77
2022-08-11T04:03:16.315Z,3.60
2022-08-11T04:06:19.671Z,3.30
2022-08-11T04:09:29.341Z,3.67
2022-08-11T04:12:51.130Z,3.83
2022-08-11T04:16:00.874Z,3.93
2022-08-11T04:19:28.377Z,3.30
2022-08-11T04:22:25.183Z,3.50
2022-08-11T04:25:10.523Z,4.00
2022-08-11T04:28:28.715Z,3.77
2022-08-11T04:31:51.342Z,3.17
2022-08-11T04:34:45.888Z,3.83
2022-08-11T04:37:36.966Z,4.20
2022-08-11T04:40:28.179Z,3.50
2022-08-11T04:43:29.725Z,3.63
2022-08-11T04:46:35.463Z,3.77
2022-08-11T04:49:57.185Z,3.75
2022-08-11T04:53:07.977Z,4.07
2022-08-11T04:56:31.425Z,3.73
2022-08-11T05:00:01.388Z,4.13
2022-08-11T05:03:10.787Z,3.77
2022-08-11T05:06:05.992Z,3.40
2022-08-11T05:09:06.491Z,4.43
2022-08-11T05:11:51.708Z,3.83
2022-08-11T05:14:50.911Z,4.07
2022-08-11T05:17:52.969Z,4.20
2022-08-11T05:20:42.519Z,3.97
2022-08-11T05:23:30.205Z,4.37
2022-08-11T05:26:47.438Z,4.50
2022-08-11T05:29:45.712Z,4.30
2022-08-11T05:32:35.139Z,4.63
2022-08-11T05:35:07.515Z,4.23
2022-08-11T05:37:57.559Z,4.67
2022-08-11T05:40:43.592Z,4.87
2022-08-11T05:43:37.674Z,4.70
2022-08-11T05:46:43.432Z,4.47
2022-08-11T05:49:29.281Z,4.25
2022-08-11T05:52:21.781Z,4.32
2022-08-11T05:55:22.479Z,4.10
2022-08-11T05:57:56.106Z,4.38
2022-08-11T06:00:25.241Z,4.20
2022-08-11T06:02:55.919Z,4.28
2022-08-11T06:05:25.321Z,4.38
2022-08-11T06:07:57.264Z,4.43
2022-08-11T06:10:33.566Z,4.18
2022-08-11T06:13:03.165Z,4.38
2022-08-11T06:15:34.075Z,4.13
2022-08-11T06:18:04.178Z,4.03
2022-08-11T06:20:37.487Z,3.95
2022-08-11T06:23:09.874Z,4.32
2022-08-11T06:25:39.338Z,3.90
2022-08-11T06:28:09.363Z,3.58
2022-08-11T06:30:40.734Z,3.95
2022-08-11T06:33:11.027Z,4.05
2022-08-11T06:35:49.216Z,4.28
2022-08-11T06:38:29.222Z,3.67
2022-08-11T06:41:21.957Z,4.70
2022-08-11T06:43:56.415Z,3.88
2022-08-11T06:46:31.665Z,3.50
2022-08-11T06:49:03.694Z,3.55
2022-08-11T06:51:32.567Z,3.80
2022-08-11T06:54:05.653Z,3.50
2022-08-11T06:57:27.917Z,3.30
2022-08-11T06:59:49.463Z,3.35
2022-08-11T07:02:22.410Z,3.47
2022-08-11T07:04:55.021Z,3.85
2022-08-11T07:08:34.197Z,3.30
2022-08-11T07:11:45.049Z,3.28
2022-08-11T07:14:50.846Z,3.42
2022-08-11T07:17:23.041Z,3.30
2022-08-11T07:20:11.816Z,3.10
2022-08-11T07:23:05.315Z,2.80
2022-08-11T07:25:53.019Z,3.63
2022-08-11T07:28:54.655Z,3.13
2022-08-11T07:31:42.002Z,3.42
2022-08-11T07:34:23.748Z,3.17
2022-08-11T07:36:54.577Z,3.10
2022-08-11T07:39:25.515Z,2.88
2022-08-11T07:41:57.139Z,2.50
2022-08-11T07:44:34.289Z,2.53
2022-08-11T07:47:23.972Z,2.70
2022-08-11T07:50:12.510Z,2.85
2022-08-11T07:52:41.431Z,2.97
2022-08-11T07:55:14.719Z,2.88
2022-08-11T07:58:16.698Z,2.70
2022-08-11T08:01:10.579Z,2.83
2022-08-11T08:04:10.416Z,2.67
2022-08-11T08:06:57.564Z,2.83
2022-08-11T08:09:44.550Z,3.08
2022-08-11T08:12:31.550Z,3.00
2022-08-11T08:15:17.521Z,2.88
2022-08-11T08:18:20.360Z,3.15
2022-08-11T08:20:46.685Z,2.65
2022-08-11T08:23:15.738Z,2.67
2022-08-11T08:25:45.711Z,2.35
2022-08-11T08:28:17.510Z,2.40
2022-08-11T08:30:47.671Z,2.38
2022-08-11T08:33:20.531Z,2.22
2022-08-11T08:36:11.793Z,2.67
2022-08-11T08:38:41.802Z,2.20
2022-08-11T08:41:13.079Z,2.47
2022-08-11T08:43:49.056Z,2.47
2022-08-11T08:46:21.528Z,2.40
2022-08-11T08:48:53.203Z,2.50
2022-08-11T08:52:01.405Z,2.38
2022-08-11T08:54:30.271Z,2.45
2022-08-11T08:56:59.002Z,2.63
2022-08-11T08:59:47.908Z,2.90
2022-08-11T09:02:17.896Z,2.63
2022-08-11T09:04:47.796Z,2.75
2022-08-11T09:07:19.262Z,2.83
2022-08-11T09:09:57.953Z,2.97
2022-08-11T09:12:36.473Z,2.60
2022-08-11T09:15:10.287Z,2.45
2022-08-11T09:17:42.375Z,2.38
2022-08-11T09:20:13.894Z,2.72
2022-08-11T09:26:14.814Z,2.50
2022-08-11T09:28:44.738Z,2.45
2022-08-11T09:31:14.070Z,2.80
2022-08-11T09:33:43.679Z,2.00
2022-08-11T09:36:31.610Z,2.10
2022-08-11T09:39:19.231Z,2.10
2022-08-11T09:42:23.617Z,2.00
2022-08-11T09:44:49.877Z,2.03
2022-08-11T09:47:24.403Z,2.10
2022-08-11T09:49:56.220Z,2.25
2022-08-11T09:52:25.783Z,2.17
2022-08-11T09:54:56.546Z,2.35
2022-08-11T09:57:43.774Z,1.90
2022-08-11T10:00:15.154Z,2.15
2022-08-11T10:02:48.237Z,2.53
2022-08-11T10:05:38.449Z,2.22
2022-08-11T10:08:08.675Z,2.15
2022-08-11T10:10:40.455Z,2.03
2022-08-11T10:14:30.126Z,2.08
2022-08-11T10:16:15.940Z,2.15
2022-08-11T10:18:52.588Z,2.10
2022-08-11T10:21:28.483Z,1.90
2022-08-11T10:24:16.702Z,1.88
2022-08-11T10:27:00.066Z,1.50
2022-08-11T10:29:49.534Z,1.65
2022-08-11T10:32:49.391Z,1.70
2022-08-11T10:35:29.165Z,1.73
2022-08-11T10:38:08.306Z,1.38
2022-08-11T10:40:39.944Z,2.50
2022-08-11T10:43:14.313Z,1.52
2022-08-11T10:46:05.686Z,1.50
2022-08-11T10:48:38.941Z,1.48
2022-08-11T10:51:24.557Z,1.58
2022-08-11T10:54:24.526Z,1.65
2022-08-11T10:57:12.499Z,1.42
2022-08-11T10:59:43.421Z,1.65
2022-08-11T11:02:15.754Z,1.52
2022-08-11T11:04:59.222Z,1.52
2022-08-11T11:07:44.226Z,1.77
2022-08-11T11:10:13.289Z,1.60
2022-08-11T11:13:03.210Z,1.38
2022-08-11T11:15:53.543Z,2.05
2022-08-11T11:18:24.993Z,1.45
2022-08-11T11:20:57.679Z,1.50
2022-08-11T11:23:32.878Z,1.50
2022-08-11T11:26:28.780Z,1.60
2022-08-11T11:29:35.627Z,1.30
2022-08-11T11:32:28.614Z,1.65
2022-08-11T11:35:12.232Z,1.30
2022-08-11T11:37:41.829Z,1.27
2022-08-11T11:40:31.615Z,1.30
2022-08-11T11:43:01.504Z,1.40
2022-08-11T11:45:29.941Z,1.48
2022-08-11T11:48:01.334Z,1.33
2022-08-11T11:50:32.841Z,1.35
2022-08-11T11:53:03.040Z,0.98
2022-08-11T11:55:31.932Z,1.30
2022-08-11T11:58:20.034Z,1.67
2022-08-11T12:01:08.624Z,1.30
2022-08-11T12:03:40.165Z,1.10
2022-08-11T12:06:12.117Z,1.50
2022-08-11T12:08:40.232Z,1.20
2022-08-11T12:11:29.767Z,1.40
2022-08-11T12:13:59.860Z,1.23
2022-08-11T12:16:34.633Z,1.40
2022-08-11T12:19:09.969Z,1.10
2022-08-11T12:22:00.875Z,1.00
2022-08-11T12:24:48.075Z,1.10
2022-08-11T12:27:24.099Z,1.17
2022-08-11T12:29:57.271Z,1.10
2022-08-11T12:32:30.146Z,1.02
2022-08-11T12:35:00.246Z,0.93
2022-08-11T12:37:33.135Z,1.25
2022-08-11T12:40:43.688Z,0.77
2022-08-11T12:43:37.259Z,0.90
2022-08-11T12:46:10.028Z,1.17
2022-08-11T12:49:02.894Z,1.10
2022-08-11T12:52:01.617Z,1.10
2022-08-11T12:55:00.416Z,1.10
2022-08-11T12:57:50.556Z,0.98
2022-08-11T13:00:37.935Z,1.10
2022-08-11T13:03:26.440Z,0.90
2022-08-11T13:05:57.378Z,0.93
2022-08-11T13:08:29.538Z,1.10
2022-08-11T13:11:17.440Z,1.00
2022-08-11T13:13:54.168Z,1.25
2022-08-11T13:16:26.709Z,0.98
2022-08-11T13:18:55.200Z,1.10
2022-08-11T13:21:24.091Z,1.05
2022-08-11T13:24:00.930Z,1.00
2022-08-11T13:26:47.160Z,1.17
2022-08-11T13:29:19.880Z,1.10
2022-08-11T13:31:48.671Z,1.10
2022-08-11T13:34:17.632Z,0.80
2022-08-11T13:36:46.410Z,1.00
2022-08-11T13:39:16.249Z,1.10
2022-08-11T13:41:47.757Z,1.27
2022-08-11T13:44:24.717Z,1.10
2022-08-11T13:46:55.611Z,1.45
2022-08-11T13:49:24.334Z,0.90
2022-08-11T13:51:55.244Z,1.00
2022-08-11T13:54:27.211Z,1.02
2022-08-11T13:56:58.059Z,0.93
2022-08-11T13:59:29.534Z,0.85
2022-08-11T14:02:22.511Z,1.00
2022-08-11T14:04:55.739Z,1.00
2022-08-11T14:07:26.854Z,1.10
2022-08-11T14:09:59.319Z,1.00
2022-08-11T14:12:48.186Z,0.88
2022-08-11T14:15:20.787Z,1.00
2022-08-11T14:17:53.119Z,1.05
2022-08-11T14:20:39.645Z,1.00
2022-08-11T14:23:11.460Z,0.98
2022-08-11T14:26:03.750Z,1.10
2022-08-11T14:28:40.294Z,1.55
2022-08-11T14:31:14.382Z,0.90
2022-08-11T14:33:59.321Z,1.00
2022-08-11T14:36:32.917Z,1.10
2022-08-11T14:39:04.871Z,1.13
2022-08-11T14:42:11.563Z,1.30
2022-08-11T14:45:00.394Z,0.98
2022-08-11T14:47:30.081Z,1.00
2022-08-11T14:50:11.341Z,1.13
2022-08-11T14:52:44.622Z,0.98
2022-08-11T14:55:31.690Z,0.90
2022-08-11T14:58:02.964Z,0.80
2022-08-11T15:00:32.181Z,0.98
2022-08-11T15:03:13.469Z,1.20
2022-08-11T15:05:56.304Z,1.05
2022-08-11T15:08:42.260Z,0.90
2022-08-11T15:11:26.622Z,0.98
2022-08-11T15:13:57.244Z,1.10
2022-08-11T15:16:44.603Z,1.20
2022-08-11T15:19:13.555Z,1.25
2022-08-11T15:21:59.438Z,1.13
2022-08-11T15:24:28.035Z,1.02
2022-08-11T15:27:19.274Z,1.00
2022-08-11T15:30:07.547Z,1.10
2022-08-11T15:32:55.155Z,1.08
2022-08-11T15:35:41.459Z,0.80
2022-08-11T15:38:13.899Z,1.15
2022-08-11T15:41:01.283Z,1.40
2022-08-11T15:43:50.087Z,1.20
2022-08-11T15:46:24.137Z,1.20
2022-08-11T15:48:59.060Z,1.10
2022-08-11T15:51:34.316Z,1.20
2022-08-11T15:54:09.367Z,1.27
2022-08-11T15:56:40.814Z,1.13
2022-08-11T15:59:43.252Z,1.30
2022-08-11T16:02:33.599Z,1.10
2022-08-11T16:05:04.367Z,1.50
2022-08-11T16:07:40.407Z,1.23
2022-08-11T16:10:17.978Z,1.48
2022-08-11T16:13:21.354Z,1.30
2022-08-11T16:16:10.146Z,1.38
2022-08-11T16:18:43.618Z,1.20
2022-08-11T16:21:33.556Z,1.08
2022-08-11T16:24:05.822Z,1.63
2022-08-11T16:27:08.580Z,1.23
2022-08-11T16:29:26.088Z,1.20
2022-08-11T16:32:14.374Z,1.27
2022-08-11T16:35:03.883Z,1.30
2022-08-11T16:37:52.968Z,1.20
2022-08-11T16:40:22.700Z,1.13
2022-08-11T16:43:11.829Z,1.60
2022-08-11T16:45:58.893Z,1.35
2022-08-11T16:48:35.710Z,1.13
2022-08-11T16:51:08.289Z,1.17
2022-08-11T16:53:54.748Z,1.70
2022-08-11T16:56:30.122Z,2.15
2022-08-11T16:59:16.265Z,1.77
2022-08-11T17:01:50.192Z,2.25
2022-08-11T17:04:43.772Z,1.63
2022-08-11T17:07:41.581Z,2.13
2022-08-11T17:10:53.688Z,1.90
2022-08-11T17:13:30.566Z,1.80
2022-08-11T17:16:09.221Z,1.33
2022-08-11T17:18:49.890Z,1.30
2022-08-11T17:21:21.244Z,1.60
2022-08-11T17:23:55.079Z,1.25
2022-08-11T17:26:51.512Z,1.20
2022-08-11T17:29:24.463Z,6.97
2022-08-11T17:32:11.259Z,3.83
2022-08-11T17:34:59.074Z,2.72
2022-08-11T17:37:29.561Z,3.42
2022-08-11T17:40:00.983Z,3.85
2022-08-11T17:42:49.295Z,3.00
2022-08-11T17:45:35.758Z,3.25
2022-08-11T17:48:23.106Z,3.67
2022-08-11T17:50:53.249Z,2.22
2022-08-11T17:53:39.846Z,2.50
2022-08-11T17:56:50.790Z,2.20
2022-08-11T17:59:37.131Z,1.60
2022-08-11T18:02:21.686Z,1.65
2022-08-11T18:05:02.957Z,1.80
2022-08-11T18:07:48.560Z,1.50
2022-08-11T18:10:39.460Z,1.77
2022-08-11T18:13:28.046Z,1.20
2022-08-11T18:16:13.914Z,1.70
2022-08-11T18:18:59.406Z,1.50
2022-08-11T18:22:00.675Z,1.30
2022-08-11T18:24:58.370Z,1.30
2022-08-11T18:27:46.739Z,1.40
2022-08-11T18:30:33.983Z,1.35
2022-08-11T18:33:56.901Z,1.60
2022-08-11T18:36:30.202Z,1.20
2022-08-11T18:39:16.994Z,1.50
2022-08-11T18:42:06.282Z,1.20
2022-08-11T18:44:55.706Z,1.42
2022-08-11T18:47:44.452Z,1.30
2022-08-11T18:50:39.662Z,1.45
2022-08-11T18:53:27.690Z,1.45
2022-08-11T18:56:14.166Z,1.33
2022-08-11T18:59:05.916Z,1.50
